Time;durP1;ratioP1;P1;durP2;ratioP2;P2;SDS_P1;SDS_P2;PMS_P1;PMS_P2;Temp;Humidity;BMP_temperature;BMP_pressure;BME280_temperature;BME280_humidity;BME280_pressure;Samples;Min_cycle;Max_cycle;Signal;HPM_P1;HPM_P2
2023/08/21 00:01:18;;;;;;;4.18;1.10;;;17.30;99.90;;;;;;5072102;28;20501;-72
2023/08/21 00:03:44;;;;;;;4.13;1.45;;;17.20;99.90;;;;;;5072003;28;20048;-73
2023/08/21 00:06:10;;;;;;;3.80;1.60;;;17.20;99.90;;;;;;5071988;28;20113;-73
2023/08/21 00:08:35;;;;;;;4.35;1.70;;;17.20;99.90;;;;;;5072261;28;20148;-72
2023/08/21 00:11:01;;;;;;;6.38;1.73;;;17.10;99.90;;;;;;5071848;28;20052;-72
2023/08/21 00:13:26;;;;;;;5.93;1.70;;;17.10;99.90;;;;;;5071870;28;20040;-72
2023/08/21 00:15:52;;;;;;;4.15;1.20;;;17.10;99.90;;;;;;5055488;28;20036;-72
2023/08/21 00:18:18;;;;;;;5.95;1.08;;;17.00;99.90;;;;;;5071895;28;20040;-72
2023/08/21 00:20:43;;;;;;;4.47;1.50;;;17.00;99.90;;;;;;5072100;28;20048;-72
2023/08/21 00:23:09;;;;;;;4.82;1.10;;;16.90;99.90;;;;;;5071751;28;20489;-72
2023/08/21 00:25:35;;;;;;;2.22;0.80;;;16.90;99.90;;;;;;5071852;28;20041;-72
2023/08/21 00:28:01;;;;;;;2.10;0.95;;;16.90;99.90;;;;;;5071774;28;20047;-72
2023/08/21 00:30:26;;;;;;;3.28;1.35;;;16.80;99.90;;;;;;5071816;28;20072;-72
2023/08/21 00:32:52;;;;;;;4.93;1.65;;;16.80;99.90;;;;;;5071707;28;20040;-72
2023/08/21 00:35:17;;;;;;;5.07;1.13;;;16.80;99.90;;;;;;5077925;28;20115;-72
2023/08/21 00:37:43;;;;;;;4.97;1.20;;;16.80;99.90;;;;;;5078369;28;20045;-72
2023/08/21 00:40:09;;;;;;;5.47;1.50;;;16.70;99.90;;;;;;5078364;28;20466;-72
2023/08/21 00:42:35;;;;;;;5.45;1.40;;;16.60;99.90;;;;;;5078394;28;20032;-72
2023/08/21 00:45:01;;;;;;;3.83;1.17;;;16.50;99.90;;;;;;5078333;28;20122;-72
2023/08/21 00:47:26;;;;;;;2.67;1.40;;;16.50;99.90;;;;;;5078158;28;20080;-72
2023/08/21 00:49:52;;;;;;;4.57;1.50;;;16.50;99.90;;;;;;5078477;28;20044;-72
2023/08/21 00:52:18;;;;;;;5.10;1.60;;;16.40;99.90;;;;;;5061524;28;20066;-73
2023/08/21 00:54:44;;;;;;;3.13;1.35;;;16.40;99.90;;;;;;5078201;28;20082;-73
2023/08/21 00:57:10;;;;;;;6.25;1.40;;;16.40;99.90;;;;;;5079406;28;20061;-73
2023/08/21 00:59:37;;;;;;;4.35;1.50;;;16.40;99.90;;;;;;5078401;28;20036;-73
2023/08/21 01:02:03;;;;;;;7.80;2.17;;;16.30;99.90;;;;;;5078120;28;20550;-73
2023/08/21 01:04:29;;;;;;;3.10;0.98;;;16.30;99.90;;;;;;5077976;28;20123;-73
2023/08/21 01:06:56;;;;;;;1.58;0.60;;;16.30;99.90;;;;;;5078143;28;20033;-73
2023/08/21 01:09:36;;;;;;;3.05;0.80;;;16.20;99.90;;;;;;5061319;28;20051;-73
2023/08/21 01:12:11;;;;;;;2.00;0.60;;;16.20;99.90;;;;;;5078101;28;20036;-73
2023/08/21 01:14:49;;;;;;;1.85;0.85;;;16.10;99.90;;;;;;5078040;28;20036;-73
2023/08/21 01:17:17;;;;;;;4.25;1.10;;;16.10;99.90;;;;;;5078018;28;20047;-73
2023/08/21 01:19:49;;;;;;;1.73;0.60;;;16.00;99.90;;;;;;5079299;28;20056;-73
2023/08/21 01:22:16;;;;;;;;;;;16.00;99.90;;;;;;5078685;28;20128;-73
2023/08/21 01:24:41;;;;;;;2.95;1.00;;;15.80;99.90;;;;;;5077974;28;20388;-73
2023/08/21 01:27:08;;;;;;;4.55;1.80;;;15.80;99.90;;;;;;5061177;28;20044;-72
2023/08/21 01:29:34;;;;;;;4.45;1.45;;;15.80;99.90;;;;;;5078240;28;20571;-72
2023/08/21 01:32:11;;;;;;;4.25;1.30;;;15.80;99.90;;;;;;5077908;28;20068;-72
2023/08/21 01:34:39;;;;;;;3.40;1.17;;;15.80;99.90;;;;;;5061200;28;20498;-72
2023/08/21 01:37:05;;;;;;;3.47;1.13;;;15.80;99.90;;;;;;5077835;28;20037;-72
2023/08/21 01:39:31;;;;;;;5.07;1.02;;;15.70;99.90;;;;;;5077798;28;20052;-73
2023/08/21 01:41:58;;;;;;;3.92;1.10;;;15.60;99.90;;;;;;5078032;28;20037;-73
2023/08/21 01:44:24;;;;;;;2.97;1.10;;;15.60;99.90;;;;;;5061302;28;20049;-73
2023/08/21 01:46:49;;;;;;;3.60;0.80;;;15.50;99.90;;;;;;5073385;28;20037;-73
2023/08/21 01:49:15;;;;;;;2.70;1.02;;;15.50;99.90;;;;;;5074484;28;20117;-73
2023/08/21 01:51:41;;;;;;;1.75;0.90;;;15.50;99.90;;;;;;5075883;28;20052;-72
2023/08/21 01:54:06;;;;;;;2.72;1.00;;;15.50;99.90;;;;;;5074384;28;20032;-72
2023/08/21 01:56:32;;;;;;;3.33;1.00;;;15.50;99.90;;;;;;5074351;28;20056;-73
2023/08/21 01:58:57;;;;;;;3.42;1.25;;;15.50;99.90;;;;;;5074574;28;20181;-73
2023/08/21 02:01:23;;;;;;;3.80;1.13;;;15.50;99.90;;;;;;5074289;28;20394;-73
2023/08/21 02:03:49;;;;;;;3.83;1.38;;;15.60;99.90;;;;;;5074226;28;20048;-73
2023/08/21 02:06:14;;;;;;;3.03;1.25;;;15.60;99.90;;;;;;5074244;28;20040;-72
2023/08/21 02:08:40;;;;;;;6.35;1.10;;;15.50;99.90;;;;;;5074095;28;20121;-72
2023/08/21 02:11:06;;;;;;;3.67;1.00;;;15.50;99.90;;;;;;5073996;28;20033;-72
2023/08/21 02:13:32;;;;;;;2.70;1.02;;;15.50;99.90;;;;;;5074305;28;20086;-73
2023/08/21 02:15:58;;;;;;;5.18;1.00;;;15.60;99.90;;;;;;5074051;28;20551;-73
2023/08/21 02:18:24;;;;;;;1.98;0.75;;;15.50;99.90;;;;;;5074272;28;20048;-73
2023/08/21 02:20:49;;;;;;;4.03;0.95;;;15.50;99.90;;;;;;5073994;28;20040;-73
2023/08/21 02:23:16;;;;;;;3.10;0.90;;;15.50;99.90;;;;;;5073924;28;20047;-73
2023/08/21 02:25:42;;;;;;;1.50;0.63;;;15.50;99.90;;;;;;5073881;28;20094;-73
2023/08/21 02:28:07;;;;;;;2.25;0.60;;;15.50;99.90;;;;;;5057159;28;20485;-73
2023/08/21 02:30:33;;;;;;;2.45;1.10;;;15.50;99.90;;;;;;5073796;28;20048;-72
2023/08/21 02:32:58;;;;;;;3.72;1.15;;;15.50;99.90;;;;;;5073962;28;20031;-72
2023/08/21 02:35:24;;;;;;;4.53;1.27;;;15.50;99.90;;;;;;5073720;28;20472;-72
2023/08/21 02:37:50;;;;;;;3.13;1.00;;;15.50;99.90;;;;;;5073648;28;20044;-72
2023/08/21 02:40:15;;;;;;;4.07;1.20;;;15.50;99.90;;;;;;5073582;28;20040;-72
2023/08/21 02:42:41;;;;;;;7.70;1.27;;;15.50;99.90;;;;;;5073499;28;20048;-72
2023/08/21 02:45:08;;;;;;;3.67;1.02;;;15.50;99.90;;;;;;5075842;28;20123;-73
2023/08/21 02:47:43;;;;;;;3.95;1.20;;;15.50;99.90;;;;;;5073565;28;20072;-73
2023/08/21 02:50:09;;;;;;;5.10;1.40;;;15.60;99.90;;;;;;5073481;28;20036;-73
2023/08/21 02:52:36;;;;;;;5.78;1.40;;;15.50;99.90;;;;;;5056601;28;20067;-73
2023/08/21 02:55:02;;;;;;;5.43;1.63;;;15.50;99.90;;;;;;5073310;28;20094;-73
2023/08/21 02:57:28;;;;;;;3.58;1.40;;;15.40;99.90;;;;;;5073130;28;20350;-73
2023/08/21 02:59:54;;;;;;;3.60;1.20;;;15.50;99.90;;;;;;5073165;28;20609;-73
2023/08/21 03:02:20;;;;;;;7.35;1.48;;;15.40;99.90;;;;;;5073055;28;20055;-73
2023/08/21 03:04:47;;;;;;;6.47;1.50;;;15.40;99.90;;;;;;5073082;28;20036;-73
2023/08/21 03:07:13;;;;;;;3.75;1.30;;;15.40;99.90;;;;;;5072959;28;20037;-73
2023/08/21 03:09:39;;;;;;;6.88;1.60;;;15.40;99.90;;;;;;5072842;28;20044;-73
2023/08/21 03:12:05;;;;;;;3.25;1.20;;;15.40;99.90;;;;;;5073200;28;20049;-73
2023/08/21 03:14:31;;;;;;;4.20;1.13;;;15.40;99.90;;;;;;5056139;28;20113;-73
2023/08/21 03:16:57;;;;;;;3.35;1.27;;;15.40;99.90;;;;;;5056203;28;20068;-73
2023/08/21 03:19:22;;;;;;;3.22;1.30;;;15.30;99.90;;;;;;5072711;28;20044;-73
2023/08/21 03:21:48;;;;;;;4.72;1.30;;;15.30;99.90;;;;;;5074269;28;20047;-73
2023/08/21 03:24:14;;;;;;;4.68;1.20;;;15.30;99.90;;;;;;5072607;28;20511;-72
2023/08/21 03:26:39;;;;;;;5.30;1.27;;;15.30;99.90;;;;;;5072927;28;20044;-72
2023/08/21 03:29:05;;;;;;;3.65;1.00;;;15.30;99.90;;;;;;5072523;28;20037;-72
2023/08/21 03:31:31;;;;;;;3.20;1.20;;;15.20;99.90;;;;;;5072507;28;20543;-72
2023/08/21 03:33:56;;;;;;;3.63;1.05;;;15.20;99.90;;;;;;5072413;28;20039;-72
2023/08/21 03:36:31;;;;;;;4.43;1.33;;;15.20;99.90;;;;;;5072419;28;20040;-72
2023/08/21 03:39:00;;;;;;;7.53;1.45;;;15.20;99.90;;;;;;5072406;28;20041;-72
2023/08/21 03:41:26;;;;;;;3.45;1.05;;;15.10;99.90;;;;;;5072336;28;20093;-72
2023/08/21 03:43:52;;;;;;;4.05;1.42;;;15.10;99.90;;;;;;5072262;28;20037;-72
2023/08/21 03:46:17;;;;;;;6.50;1.15;;;15.10;99.90;;;;;;5072321;28;20090;-72
2023/08/21 03:48:43;;;;;;;7.10;2.03;;;15.10;99.90;;;;;;5072176;28;20044;-72
2023/08/21 03:51:09;;;;;;;2.80;1.30;;;15.00;99.90;;;;;;5072212;28;20047;-72
2023/08/21 03:53:34;;;;;;;3.85;1.42;;;15.00;99.90;;;;;;5072130;28;20041;-72
2023/08/21 03:56:00;;;;;;;6.68;1.33;;;15.00;99.90;;;;;;5072178;28;20047;-72
2023/08/21 03:58:26;;;;;;;4.13;1.20;;;15.00;99.90;;;;;;5055535;28;20537;-72
2023/08/21 04:00:55;;;;;;;2.38;0.93;;;15.00;99.90;;;;;;5072384;28;20044;-72
2023/08/21 04:03:21;;;;;;;3.38;1.00;;;15.00;99.90;;;;;;5072277;28;20063;-72
2023/08/21 04:05:47;;;;;;;2.30;0.88;;;14.90;99.90;;;;;;5072342;28;20509;-72
2023/08/21 04:08:12;;;;;;;3.50;0.68;;;14.90;99.90;;;;;;5071419;28;20390;-72
2023/08/21 04:10:41;;;;;;;3.38;1.02;;;14.80;99.90;;;;;;5072051;28;20058;-72
2023/08/21 04:13:07;;;;;;;5.28;0.85;;;14.80;99.90;;;;;;5071930;28;20040;-72
2023/08/21 04:15:35;;;;;;;4.18;1.50;;;14.70;99.90;;;;;;5071946;28;20082;-72
2023/08/21 04:18:00;;;;;;;4.05;1.40;;;14.70;99.90;;;;;;5071898;28;20044;-72
2023/08/21 04:20:26;;;;;;;4.95;1.13;;;14.60;99.90;;;;;;5071870;28;20127;-72
2023/08/21 04:22:52;;;;;;;4.00;1.10;;;14.50;99.90;;;;;;5072096;28;20063;-72
2023/08/21 04:25:17;;;;;;;5.32;1.35;;;14.50;99.90;;;;;;5072082;28;20102;-72
2023/08/21 04:27:43;;;;;;;3.83;1.30;;;14.50;99.90;;;;;;5071956;28;20040;-72
2023/08/21 04:30:10;;;;;;;4.80;1.10;;;14.50;99.90;;;;;;5071745;28;20512;-72
2023/08/21 04:32:36;;;;;;;4.20;1.08;;;14.50;99.90;;;;;;5071862;28;20036;-72
2023/08/21 04:35:01;;;;;;;3.58;1.05;;;14.60;99.90;;;;;;5071758;28;20040;-72
2023/08/21 04:37:27;;;;;;;3.35;1.00;;;14.50;99.90;;;;;;5071685;28;20032;-72
2023/08/21 04:39:53;;;;;;;4.20;1.30;;;14.60;99.90;;;;;;5071762;28;20119;-73
2023/08/21 04:42:19;;;;;;;5.15;1.30;;;14.50;99.90;;;;;;5071839;28;20040;-73
2023/08/21 04:44:45;;;;;;;3.72;1.30;;;14.50;99.90;;;;;;5071876;28;20055;-73
2023/08/21 04:47:26;;;;;;;4.47;1.50;;;14.50;99.90;;;;;;5054865;28;20037;-73
2023/08/21 04:49:52;;;;;;;3.80;1.20;;;14.50;99.90;;;;;;5071588;28;20078;-73
2023/08/21 04:52:21;;;;;;;4.00;1.25;;;14.50;99.90;;;;;;5071495;28;20049;-73
2023/08/21 04:54:48;;;;;;;7.05;1.45;;;14.60;99.90;;;;;;5071462;28;20397;-73
2023/08/21 04:57:14;;;;;;;3.85;0.90;;;14.60;99.90;;;;;;5071527;28;20043;-73
2023/08/21 04:59:40;;;;;;;4.43;1.00;;;14.60;99.90;;;;;;5073304;28;20041;-73
2023/08/21 05:02:05;;;;;;;5.70;1.45;;;14.60;99.90;;;;;;5071705;28;20040;-73
2023/08/21 05:04:31;;;;;;;4.68;1.35;;;14.60;99.90;;;;;;5071322;28;20040;-73
2023/08/21 05:06:57;;;;;;;3.83;1.20;;;14.60;99.90;;;;;;5071388;28;20033;-73
2023/08/21 05:09:22;;;;;;;4.30;1.17;;;14.60;99.90;;;;;;5071416;28;20095;-73
2023/08/21 05:11:48;;;;;;;2.25;1.15;;;14.60;99.90;;;;;;5054582;28;20569;-73
2023/08/21 05:14:13;;;;;;;3.67;1.55;;;14.60;99.90;;;;;;5071567;28;20041;-73
2023/08/21 05:16:39;;;;;;;6.35;1.50;;;14.60;99.90;;;;;;5071349;28;20452;-73
2023/08/21 05:19:05;;;;;;;5.68;1.60;;;14.60;99.90;;;;;;5071297;28;20087;-73
2023/08/21 05:21:30;;;;;;;3.42;1.27;;;14.60;99.90;;;;;;5074629;28;20044;-73
2023/08/21 05:23:56;;;;;;;4.50;1.60;;;14.60;99.90;;;;;;5075165;28;20071;-73
2023/08/21 05:26:21;;;;;;;6.50;1.67;;;14.60;99.90;;;;;;5074944;28;20505;-74
2023/08/21 05:28:47;;;;;;;4.13;1.30;;;14.60;99.90;;;;;;5074740;28;20037;-73
2023/08/21 05:31:13;;;;;;;6.20;1.42;;;14.60;99.90;;;;;;5074828;28;20037;-73
2023/08/21 05:33:38;;;;;;;4.65;1.50;;;14.70;99.90;;;;;;5075000;28;20079;-73
2023/08/21 05:36:04;;;;;;;6.00;1.30;;;14.70;99.90;;;;;;5074797;28;20075;-73
2023/08/21 05:38:30;;;;;;;7.00;1.33;;;14.80;99.90;;;;;;5074922;28;20127;-73
2023/08/21 05:40:56;;;;;;;5.85;1.50;;;14.90;99.90;;;;;;5074638;28;20412;-73
2023/08/21 05:43:22;;;;;;;4.85;1.13;;;15.00;99.90;;;;;;5074589;28;20040;-73
2023/08/21 05:45:47;;;;;;;4.78;1.33;;;15.00;99.90;;;;;;5074601;28;20119;-73
2023/08/21 05:48:13;;;;;;;6.40;1.75;;;15.00;99.90;;;;;;5074414;28;20123;-72
2023/08/21 05:50:39;;;;;;;5.03;1.70;;;15.10;99.90;;;;;;5074522;28;20043;-72
2023/08/21 05:53:05;;;;;;;5.03;1.67;;;15.20;99.90;;;;;;5074446;28;20549;-72
2023/08/21 05:55:31;;;;;;;5.50;1.65;;;15.20;99.90;;;;;;5074376;28;20497;-72
2023/08/21 05:57:57;;;;;;;3.67;1.50;;;15.30;99.90;;;;;;5074349;28;20039;-72
2023/08/21 06:00:22;;;;;;;7.22;1.80;;;15.40;99.90;;;;;;5074577;28;20114;-73
2023/08/21 06:02:48;;;;;;;6.45;2.00;;;15.40;99.90;;;;;;5074278;28;20504;-73
2023/08/21 06:05:13;;;;;;;5.07;1.83;;;15.50;99.90;;;;;;5074418;28;20083;-73
2023/08/21 06:07:42;;;;;;;4.05;1.88;;;15.60;99.90;;;;;;5074482;28;20085;-73
2023/08/21 06:10:11;;;;;;;5.60;1.80;;;15.70;99.90;;;;;;5074058;28;20038;-73
2023/08/21 06:12:37;;;;;;;7.63;1.92;;;15.80;99.90;;;;;;5074099;28;20083;-72
2023/08/21 06:15:03;;;;;;;4.25;2.10;;;15.90;99.90;;;;;;5074152;28;20072;-72
2023/08/21 06:17:28;;;;;;;11.20;2.53;;;16.00;99.90;;;;;;5074024;28;20075;-72
2023/08/21 06:19:54;;;;;;;7.32;2.05;;;16.10;99.90;;;;;;5074007;28;20044;-72
2023/08/21 06:22:20;;;;;;;8.90;3.00;;;16.20;99.90;;;;;;5073923;28;20139;-72
2023/08/21 06:24:45;;;;;;;5.38;2.85;;;16.20;99.90;;;;;;5074211;28;20048;-72
2023/08/21 06:27:11;;;;;;;7.57;2.65;;;16.30;99.90;;;;;;5074189;28;20076;-73
2023/08/21 06:29:40;;;;;;;11.27;3.38;;;16.40;99.90;;;;;;5073764;28;20516;-73
2023/08/21 06:32:05;;;;;;;10.75;2.90;;;16.50;99.90;;;;;;5073331;28;20040;-73
2023/08/21 06:34:31;;;;;;;12.88;3.60;;;16.60;99.90;;;;;;5073690;28;20378;-72
2023/08/21 06:36:57;;;;;;;11.55;3.22;;;16.70;99.90;;;;;;5073716;28;20044;-72
2023/08/21 06:39:22;;;;;;;9.82;3.47;;;16.80;99.90;;;;;;5073676;28;20044;-72
2023/08/21 06:41:48;;;;;;;11.75;2.70;;;16.90;99.90;;;;;;5073609;28;20047;-72
2023/08/21 06:44:14;;;;;;;7.97;2.97;;;16.90;99.90;;;;;;5073511;28;20044;-73
2023/08/21 06:46:39;;;;;;;8.65;2.70;;;17.10;99.90;;;;;;5073469;28;20052;-73
2023/08/21 06:49:05;;;;;;;12.32;2.83;;;17.10;99.90;;;;;;5073272;28;20041;-72
2023/08/21 06:51:30;;;;;;;12.05;3.08;;;17.20;99.90;;;;;;5073302;28;20071;-73
2023/08/21 06:53:56;;;;;;;11.45;2.95;;;17.40;99.90;;;;;;5073329;28;20044;-73
2023/08/21 06:56:22;;;;;;;6.45;2.50;;;17.40;99.90;;;;;;5073342;28;20068;-73
2023/08/21 06:58:47;;;;;;;9.45;2.80;;;17.50;99.90;;;;;;5073495;28;20080;-73
2023/08/21 07:01:13;;;;;;;12.18;2.90;;;17.60;99.90;;;;;;5073147;28;20053;-73
2023/08/21 07:03:38;;;;;;;9.75;2.78;;;17.70;99.90;;;;;;5073247;28;20116;-73
2023/08/21 07:06:04;;;;;;;8.27;3.00;;;17.80;99.90;;;;;;5073295;28;20489;-73
2023/08/21 07:08:30;;;;;;;6.88;2.40;;;17.80;99.90;;;;;;5072909;28;20068;-73
2023/08/21 07:10:55;;;;;;;8.88;2.70;;;17.80;99.90;;;;;;5073125;28;20408;-73
2023/08/21 07:13:21;;;;;;;13.15;3.22;;;18.00;99.90;;;;;;5072769;28;20507;-73
2023/08/21 07:15:47;;;;;;;10.55;2.55;;;18.10;99.90;;;;;;5073055;28;20105;-73
2023/08/21 07:18:13;;;;;;;12.00;2.78;;;18.20;99.90;;;;;;5073155;28;20382;-73
2023/08/21 07:20:39;;;;;;;7.78;2.75;;;18.20;99.90;;;;;;5072852;28;20045;-73
2023/08/21 07:23:04;;;;;;;16.33;3.08;;;18.40;99.90;;;;;;5072748;28;20055;-73
2023/08/21 07:25:30;;;;;;;10.02;2.70;;;18.50;99.90;;;;;;5073029;28;20067;-73
2023/08/21 07:27:56;;;;;;;8.00;2.70;;;18.60;99.90;;;;;;5072523;28;20520;-73
2023/08/21 07:30:22;;;;;;;10.50;2.42;;;18.60;99.90;;;;;;5072480;28;20028;-73
2023/08/21 07:32:48;;;;;;;7.72;2.42;;;18.80;99.90;;;;;;5072444;28;20036;-73
2023/08/21 07:35:15;;;;;;;9.77;2.53;;;18.90;99.90;;;;;;5072825;28;20469;-73
2023/08/21 07:37:44;;;;;;;9.85;2.22;;;19.00;99.90;;;;;;5072673;28;20493;-73
2023/08/21 07:40:10;;;;;;;6.00;1.98;;;19.10;99.90;;;;;;5072627;28;20405;-73
2023/08/21 07:42:35;;;;;;;12.88;2.28;;;19.20;99.90;;;;;;5072104;28;20049;-73
2023/08/21 07:45:01;;;;;;;19.42;2.40;;;19.30;99.90;;;;;;5071568;28;20409;-73
2023/08/21 07:47:27;;;;;;;10.80;2.40;;;19.40;99.90;;;;;;5072187;28;20047;-73
2023/08/21 07:49:53;;;;;;;7.38;1.80;;;19.60;99.90;;;;;;5072336;28;20047;-73
2023/08/21 07:52:19;;;;;;;5.65;1.58;;;19.70;99.90;;;;;;5072195;28;20044;-73
2023/08/21 07:54:45;;;;;;;11.10;1.98;;;19.70;99.90;;;;;;5072237;28;20036;-73
2023/08/21 07:57:11;;;;;;;15.07;1.80;;;19.90;99.90;;;;;;5072147;28;20040;-73
2023/08/21 07:59:36;;;;;;;14.25;1.63;;;20.00;99.90;;;;;;5072466;28;20497;-73
2023/08/21 08:02:03;;;;;;;7.88;1.58;;;20.10;99.90;;;;;;5072069;28;20036;-73
2023/08/21 08:04:28;;;;;;;11.68;1.45;;;20.30;99.90;;;;;;5072234;28;20123;-73
2023/08/21 08:06:54;;;;;;;11.82;1.33;;;20.40;99.90;;;;;;5072060;28;20449;-73
2023/08/21 08:09:19;;;;;;;10.30;1.73;;;20.50;99.90;;;;;;5071979;28;20044;-73
2023/08/21 08:11:45;;;;;;;5.40;1.55;;;20.70;99.90;;;;;;5071927;28;20123;-73
2023/08/21 08:14:11;;;;;;;14.77;1.55;;;20.80;99.90;;;;;;5072128;28;20040;-73
2023/08/21 08:16:36;;;;;;;11.23;1.50;;;20.90;99.90;;;;;;5072245;28;20121;-73
2023/08/21 08:19:02;;;;;;;10.85;1.40;;;21.00;99.90;;;;;;5071879;28;20409;-72
2023/08/21 08:21:27;;;;;;;6.13;1.42;;;21.20;99.90;;;;;;5071762;28;20044;-72
2023/08/21 08:23:53;;;;;;;33.90;3.05;;;21.30;99.90;;;;;;5071812;28;20107;-72
2023/08/21 08:26:18;;;;;;;11.95;1.77;;;21.50;99.90;;;;;;5072138;28;20040;-72
2023/08/21 08:28:44;;;;;;;6.40;1.20;;;21.60;99.90;;;;;;5071856;28;20505;-72
2023/08/21 08:31:17;;;;;;;7.03;1.80;;;21.80;99.90;;;;;;5071797;28;20447;-72
2023/08/21 08:33:43;;;;;;;4.53;1.13;;;21.90;99.90;;;;;;5071717;28;20094;-72
2023/08/21 08:36:09;;;;;;;18.98;1.98;;;22.10;99.90;;;;;;5071995;28;20044;-72
2023/08/21 08:38:34;;;;;;;6.93;1.30;;;22.30;99.90;;;;;;5073253;28;20041;-72
2023/08/21 08:41:06;;;;;;;14.00;1.65;;;22.40;99.90;;;;;;5073220;28;20040;-72
2023/08/21 08:43:36;;;;;;;6.68;1.20;;;22.50;99.90;;;;;;5073146;28;20044;-72
2023/08/21 08:46:03;;;;;;;6.28;1.10;;;22.60;99.90;;;;;;5071974;28;20041;-72
2023/08/21 08:48:29;;;;;;;4.15;1.00;;;22.70;99.90;;;;;;5071723;28;20040;-72
2023/08/21 08:50:55;;;;;;;5.57;1.10;;;22.90;99.90;;;;;;5071582;28;20044;-72
2023/08/21 08:53:21;;;;;;;5.00;1.20;;;23.00;99.40;;;;;;5071553;28;20139;-72
2023/08/21 08:55:46;;;;;;;6.13;1.27;;;23.10;99.60;;;;;;5075466;28;20029;-72
2023/08/21 08:58:12;;;;;;;4.97;1.08;;;23.20;99.20;;;;;;5075588;28;20124;-72
2023/08/21 09:00:37;;;;;;;3.55;1.00;;;23.40;98.70;;;;;;5075562;28;20040;-72
2023/08/21 09:03:04;;;;;;;5.90;1.25;;;23.60;98.00;;;;;;5075734;28;20096;-73
2023/08/21 09:05:30;;;;;;;5.00;1.20;;;23.80;96.70;;;;;;5075448;28;20048;-73
2023/08/21 09:08:03;;;;;;;6.10;1.55;;;23.90;96.60;;;;;;5075349;28;20056;-73
2023/08/21 09:10:29;;;;;;;5.50;1.50;;;24.00;96.70;;;;;;5075196;28;20436;-73
2023/08/21 09:12:58;;;;;;;6.43;1.38;;;24.10;96.30;;;;;;5075248;28;20044;-73
2023/08/21 09:15:29;;;;;;;4.22;1.10;;;24.20;96.30;;;;;;5075261;28;20440;-73
2023/08/21 09:17:55;;;;;;;3.80;0.77;;;24.40;94.50;;;;;;5076768;28;20037;-73
2023/08/21 09:20:20;;;;;;;6.80;1.00;;;24.50;94.10;;;;;;5075404;28;20469;-73
2023/08/21 09:22:56;;;;;;;6.28;1.27;;;24.60;92.90;;;;;;5075037;28;20047;-73
2023/08/21 09:25:24;;;;;;;4.65;1.33;;;24.80;92.70;;;;;;5075031;28;20076;-73
2023/08/21 09:27:52;;;;;;;8.63;1.30;;;24.90;92.30;;;;;;5076003;28;20055;-73
2023/08/21 09:30:18;;;;;;;6.85;1.33;;;24.90;91.00;;;;;;5074948;28;20090;-73
2023/08/21 09:33:00;;;;;;;4.88;1.20;;;25.10;91.60;;;;;;5075070;28;20036;-73
2023/08/21 09:35:26;;;;;;;4.53;1.35;;;25.30;91.20;;;;;;5075143;28;20084;-73
2023/08/21 09:37:53;;;;;;;5.90;1.73;;;25.40;91.70;;;;;;5075094;28;20055;-73
2023/08/21 09:40:19;;;;;;;8.18;1.63;;;25.60;90.20;;;;;;5075053;28;20044;-73
2023/08/21 09:42:45;;;;;;;6.13;0.93;;;25.70;87.40;;;;;;5074710;28;20060;-73
2023/08/21 09:45:11;;;;;;;5.70;1.13;;;25.80;88.20;;;;;;5074739;28;20044;-73
2023/08/21 09:47:39;;;;;;;4.95;0.90;;;25.90;83.40;;;;;;5074587;28;20131;-73
2023/08/21 09:50:05;;;;;;;7.43;1.30;;;26.10;84.50;;;;;;5074699;28;20056;-73
2023/08/21 09:52:31;;;;;;;5.43;1.50;;;26.20;84.10;;;;;;5074540;28;20045;-73
2023/08/21 09:54:57;;;;;;;5.10;1.25;;;26.40;82.50;;;;;;5074551;28;20040;-73
2023/08/21 09:57:23;;;;;;;4.63;1.27;;;26.50;82.40;;;;;;5074742;28;20041;-73
2023/08/21 09:59:54;;;;;;;6.10;1.13;;;26.60;78.90;;;;;;5074480;28;20039;-73
2023/08/21 10:02:21;;;;;;;4.88;1.10;;;26.60;78.30;;;;;;5074397;28;20044;-73
2023/08/21 10:04:49;;;;;;;5.55;1.30;;;26.60;79.20;;;;;;5074642;28;20044;-73
2023/08/21 10:07:18;;;;;;;5.75;1.40;;;26.80;78.50;;;;;;5073170;28;20531;-73
2023/08/21 10:09:44;;;;;;;7.25;1.30;;;26.90;77.80;;;;;;5074133;28;20044;-73
2023/08/21 10:12:12;;;;;;;6.75;1.38;;;27.20;79.30;;;;;;5074356;28;20051;-73
2023/08/21 10:14:38;;;;;;;4.22;1.20;;;27.20;76.50;;;;;;5074480;28;20067;-73
2023/08/21 10:17:05;;;;;;;6.35;1.33;;;27.20;75.70;;;;;;5074382;28;20489;-73
2023/08/21 10:19:32;;;;;;;5.97;0.98;;;27.30;73.00;;;;;;5074121;28;20041;-73
2023/08/21 10:21:59;;;;;;;3.13;0.90;;;27.40;74.80;;;;;;5074342;28;20036;-73
2023/08/21 10:24:38;;;;;;;2.92;0.70;;;27.50;72.80;;;;;;5073961;28;20090;-72
2023/08/21 10:27:06;;;;;;;3.28;0.90;;;27.70;70.70;;;;;;5074288;28;20056;-73
2023/08/21 10:29:32;;;;;;;4.22;0.80;;;27.80;68.40;;;;;;5073877;28;20498;-73
2023/08/21 10:32:05;;;;;;;3.17;0.90;;;27.80;68.30;;;;;;5073897;28;20086;-73
2023/08/21 10:34:35;;;;;;;5.45;1.27;;;28.00;67.00;;;;;;5073794;28;20047;-73
2023/08/21 10:37:11;;;;;;;4.07;0.88;;;28.00;67.10;;;;;;5073794;28;20036;-71
2023/08/21 10:39:39;;;;;;;4.32;1.00;;;28.10;67.00;;;;;;5073749;28;20382;-71
2023/08/21 10:42:15;;;;;;;4.60;1.25;;;28.30;68.00;;;;;;5073694;28;20044;-71
2023/08/21 10:44:48;;;;;;;6.40;1.27;;;28.40;66.80;;;;;;5073642;28;20051;-71
2023/08/21 10:47:21;;;;;;;6.05;1.60;;;28.40;66.90;;;;;;5073922;28;20049;-71
2023/08/21 10:49:50;;;;;;;7.70;1.15;;;28.60;67.90;;;;;;5073548;28;20080;-71
2023/08/21 10:52:22;;;;;;;4.47;1.23;;;28.80;67.50;;;;;;5073636;28;20036;-71
2023/08/21 10:54:56;;;;;;;5.03;1.10;;;29.00;64.90;;;;;;5073392;28;20043;-71
2023/08/21 10:57:23;;;;;;;3.55;1.17;;;29.20;66.30;;;;;;5074893;28;20040;-71
2023/08/21 10:59:56;;;;;;;4.05;1.17;;;29.30;66.70;;;;;;5073536;28;20063;-71
2023/08/21 11:02:23;;;;;;;13.63;1.27;;;29.30;64.00;;;;;;5073181;28;20528;-71
2023/08/21 11:04:49;;;;;;;6.15;1.10;;;29.30;64.80;;;;;;5073457;28;20040;-71
2023/08/21 11:07:15;;;;;;;3.70;1.10;;;29.30;63.80;;;;;;5073441;28;20095;-71
2023/08/21 11:09:41;;;;;;;4.60;1.30;;;29.10;64.30;;;;;;5072980;28;20539;-71
2023/08/21 11:12:12;;;;;;;5.65;0.90;;;29.00;64.70;;;;;;5073092;28;20109;-71
2023/08/21 11:14:39;;;;;;;4.80;1.25;;;29.10;62.10;;;;;;5073297;28;20051;-71
2023/08/21 11:17:05;;;;;;;5.05;1.20;;;29.10;62.20;;;;;;5072957;28;20071;-71
2023/08/21 11:19:32;;;;;;;5.32;1.50;;;29.20;62.60;;;;;;5072943;28;20036;-71
2023/08/21 11:22:03;;;;;;;3.40;1.17;;;29.30;63.20;;;;;;5074095;28;20045;-71
2023/08/21 11:24:38;;;;;;;4.57;1.17;;;29.40;62.10;;;;;;5072780;28;20501;-71
2023/08/21 11:27:12;;;;;;;4.85;1.20;;;29.60;61.50;;;;;;5072771;28;20122;-71
2023/08/21 11:29:49;;;;;;;4.85;1.23;;;29.60;62.70;;;;;;5072653;28;20052;-71
2023/08/21 11:32:22;;;;;;;4.22;1.17;;;29.60;61.70;;;;;;5072562;28;20055;-71
2023/08/21 11:34:55;;;;;;;4.35;1.20;;;29.70;61.00;;;;;;5072616;28;20570;-71
2023/08/21 11:37:27;;;;;;;4.50;1.27;;;29.70;60.40;;;;;;5072595;28;20086;-71
2023/08/21 11:39:55;;;;;;;2.35;0.80;;;29.80;61.40;;;;;;5072893;28;20048;-71
2023/08/21 11:42:28;;;;;;;7.97;1.73;;;30.00;60.00;;;;;;5072662;28;20040;-71
2023/08/21 11:44:53;;;;;;;3.97;1.10;;;30.20;58.20;;;;;;5072470;28;20040;-71
2023/08/21 11:47:21;;;;;;;5.55;1.00;;;30.30;60.10;;;;;;5072374;28;20040;-71
2023/08/21 11:49:49;;;;;;;3.42;0.93;;;30.40;60.30;;;;;;5073115;28;20045;-71
2023/08/21 11:52:21;;;;;;;4.25;1.00;;;30.40;59.40;;;;;;5072216;28;20493;-71
2023/08/21 11:54:47;;;;;;;;;;;30.70;59.90;;;;;;5072684;28;20457;-71
2023/08/21 11:57:14;;;;;;;6.68;1.30;;;30.80;58.70;;;;;;5072239;28;19920;-71
2023/08/21 11:59:40;;;;;;;5.68;1.65;;;30.90;59.20;;;;;;5072209;28;20056;-71
2023/08/21 12:02:18;;;;;;;7.95;2.13;;;31.00;56.90;;;;;;5072112;28;20469;-71
2023/08/21 12:04:44;;;;;;;5.75;1.63;;;31.00;58.20;;;;;;5072125;28;20539;-71
2023/08/21 12:07:10;;;;;;;5.30;1.40;;;31.00;57.90;;;;;;5072124;28;20036;-71
2023/08/21 12:09:36;;;;;;;7.28;1.38;;;30.90;57.50;;;;;;5071836;28;20053;-71
2023/08/21 12:12:01;;;;;;;3.70;0.98;;;30.90;58.10;;;;;;5073251;28;20032;-71
2023/08/21 12:14:28;;;;;;;5.28;1.10;;;31.00;57.20;;;;;;5072012;28;20036;-71
2023/08/21 12:16:54;;;;;;;3.70;0.95;;;31.00;56.80;;;;;;5072004;28;20066;-71
2023/08/21 12:19:23;;;;;;;5.47;1.10;;;31.20;55.40;;;;;;5071941;28;20089;-71
2023/08/21 12:21:48;;;;;;;4.18;0.73;;;31.20;55.80;;;;;;5073395;28;20492;-71
2023/08/21 12:24:14;;;;;;;5.15;0.93;;;31.30;54.20;;;;;;5071842;28;20098;-71
2023/08/21 12:26:39;;;;;;;9.05;1.20;;;31.40;54.50;;;;;;5073687;28;20143;-71
2023/08/21 12:29:05;;;;;;;4.22;0.80;;;31.30;54.40;;;;;;5071436;28;20044;-71
2023/08/21 12:31:31;;;;;;;5.43;1.27;;;31.40;52.80;;;;;;5071864;28;20119;-71
2023/08/21 12:33:56;;;;;;;3.22;0.75;;;31.30;53.40;;;;;;5073211;28;20036;-71
2023/08/21 12:36:23;;;;;;;4.35;1.10;;;31.30;52.40;;;;;;5071797;28;20040;-71
2023/08/21 12:38:48;;;;;;;8.05;1.27;;;31.40;52.70;;;;;;5071741;28;20055;-71
2023/08/21 12:41:14;;;;;;;3.03;0.70;;;31.50;52.50;;;;;;5055060;28;20036;-71
2023/08/21 12:43:39;;;;;;;4.32;0.68;;;31.50;51.70;;;;;;5071616;28;20048;-71